Time,TemperatureF,DewpointF,PressureIn,WindDirection,WindDirectionDegrees,WindSpeedMPH,WindSpeedGustMPH,Humidity,HourlyPrecipIn,Conditions,Clouds,dailyrainin,SolarRadiationWatts/m^2,SoftwareType,DateUTC
2013-01-25 00:00:00,16.8,1.8,30.41,WSW,244,2.0,3.0,51,0.00,,,0.00,0,LWC V2.00 B2112,2013-01-25 05:00:00,
2013-01-25 00:01:00,16.8,1.8,30.41,SW,227,1.0,3.0,51,0.00,,,0.00,0,LWC V2.00 B2112,2013-01-25 05:01:00,
2013-01-25 00:06:00,16.7,1.3,30.41,SSW,207,0.0,2.0,50,0.00,,,0.00,0,LWC V2.00 B2112,2013-01-25 05:06:00,
2013-01-25 00:11:00,16.7,1.3,30.41,SSW,200,5.0,5.0,50,0.00,,,0.00,0,LWC V2.00 B2112,2013-01-25 05:11:00,
2013-01-25 00:16:00,16.6,1.2,30.41,SSW,201,2.0,3.0,50,0.00,,,0.00,0,LWC V2.00 B2112,2013-01-25 05:16:00,
2013-01-25 00:17:00,16.6,1.2,30.41,SSW,201,0.0,3.0,50,0.00,,,0.00,0,LWC V2.00 B2112,2013-01-25 05:17:00,
2013-01-25 00:22:00,16.6,0.8,30.41,SW,214,1.0,6.0,49,0.00,,,0.00,0,LWC V2.00 B2112,2013-01-25 05:22:00,
2013-01-25 00:27:00,16.6,0.4,30.40,SSW,209,0.0,3.0,48,0.00,,,0.00,0,LWC V2.00 B2112,2013-01-25 05:27:00,
2013-01-25 00:32:00,16.6,0.8,30.40,SSW,193,1.0,4.0,49,0.00,,,0.00,0,LWC V2.00 B2112,2013-01-25 05:32:00,
2013-01-25 00:37:00,16.5,0.3,30.40,SSW,198,0.0,2.0,48,0.00,,,0.00,0,LWC V2.00 B2112,2013-01-25 05:37:00,
2013-01-25 00:42:00,16.4,0.6,30.40,SSW,209,4.0,5.0,49,0.00,,,0.00,0,LWC V2.00 B2112,2013-01-25 05:42:00,
2013-01-25 00:47:00,16.3,0.1,30.40,SSW,194,1.0,3.0,48,0.00,,,0.00,0,LWC V2.00 B2112,2013-01-25 05:47:00,
2013-01-25 00:52:00,16.3,0.1,30.41,NNW,334,3.0,5.0,48,0.00,,,0.00,0,LWC V2.00 B2112,2013-01-25 05:52:00,
2013-01-25 00:57:00,16.2,-0.4,30.40,SW,227,3.0,6.0,47,0.00,,,0.00,0,LWC V2.00 B2112,2013-01-25 05:57:00,
2013-01-25 01:02:00,16.2,-0.4,30.40,SW,223,1.0,4.0,47,0.00,,,0.00,0,LWC V2.00 B2112,2013-01-25 06:02:00,
2013-01-25 01:07:00,16.1,-0.5,30.40,SW,227,4.0,4.0,47,0.00,,,0.00,0,LWC V2.00 B2112,2013-01-25 06:07:00,
2013-01-25 01:12:00,16.0,-0.6,30.40,WSW,256,2.0,5.0,47,0.00,,,0.00,0,LWC V2.00 B2112,2013-01-25 06:12:00,
2013-01-25 01:17:00,16.0,-0.6,30.40,SW,226,0.0,3.0,47,0.00,,,0.00,0,LWC V2.00 B2112,2013-01-25 06:17:00,
2013-01-25 01:22:00,15.9,-0.7,30.40,SW,217,1.0,4.0,47,0.00,,,0.00,0,LWC V2.00 B2112,2013-01-25 06:22:00,
2013-01-25 01:27:00,15.8,-0.8,30.40,West,276,0.0,2.0,47,0.00,,,0.00,0,LWC V2.00 B2112,2013-01-25 06:27:00,
2013-01-25 01:32:00,15.8,-0.4,30.40,WSW,243,0.0,2.0,48,0.00,,,0.00,0,LWC V2.00 B2112,2013-01-25 06:32:00,
2013-01-25 01:37:00,15.7,-0.9,30.40,SW,219,0.0,2.0,47,0.00,,,0.00,0,LWC V2.00 B2112,2013-01-25 06:37:00,
2013-01-25 01:42:00,15.6,-0.6,30.41,SW,219,1.0,3.0,48,0.00,,,0.00,0,LWC V2.00 B2112,2013-01-25 06:42:00,
2013-01-25 01:47:00,15.5,-0.6,30.40,WSW,240,1.0,3.0,48,0.00,,,0.00,0,LWC V2.00 B2112,2013-01-25 06:47:00,
2013-01-25 01:52:00,15.5,-1.1,30.41,South,180,1.0,3.0,47,0.00,,,0.00,0,LWC V2.00 B2112,2013-01-25 06:52:00,
2013-01-25 01:57:00,15.4,-0.7,30.41,South,180,0.0,2.0,48,0.00,,,0.00,0,LWC V2.00 B2112,2013-01-25 06:57:00,
2013-01-25 02:01:00,15.3,-0.8,30.41,South,180,0.0,2.0,48,0.00,,,0.00,0,LWC V2.00 B2112,2013-01-25 07:01:00,
2013-01-25 02:06:00,15.2,-0.5,30.41,South,180,1.0,1.0,49,0.00,,,0.00,0,LWC V2.00 B2112,2013-01-25 07:06:00,
2013-01-25 02:11:00,15.2,-0.9,30.41,NNW,340,2.0,6.0,48,0.00,,,0.00,0,LWC V2.00 B2112,2013-01-25 07:11:00,
2013-01-25 02:16:00,15.1,-1.0,30.41,WSW,252,1.0,2.0,48,0.00,,,0.00,0,LWC V2.00 B2112,2013-01-25 07:16:00,
2013-01-25 02:21:00,15.1,-1.0,30.41,SW,229,0.0,2.0,48,0.00,,,0.00,0,LWC V2.00 B2112,2013-01-25 07:21:00,
2013-01-25 02:26:00,15.0,-0.7,30.41,SW,229,0.0,0.0,49,0.00,,,0.00,0,LWC V2.00 B2112,2013-01-25 07:26:00,
2013-01-25 02:31:00,14.9,-0.3,30.42,SW,229,0.0,1.0,50,0.00,,,0.00,0,LWC V2.00 B2112,2013-01-25 07:31:00,
2013-01-25 02:36:00,14.8,-0.4,30.42,SW,227,0.0,1.0,50,0.00,,,0.00,0,LWC V2.00 B2112,2013-01-25 07:36:00,
2013-01-25 02:41:00,14.6,-0.2,30.42,SW,227,0.0,1.0,51,0.00,,,0.00,0,LWC V2.00 B2112,2013-01-25 07:41:00,
2013-01-25 02:46:00,14.5,0.1,30.42,SW,227,0.0,0.0,52,0.00,,,0.00,0,LWC V2.00 B2112,2013-01-25 07:46:00,
2013-01-25 02:51:00,14.3,0.3,30.42,SW,227,0.0,1.0,53,0.00,,,0.00,0,LWC V2.00 B2112,2013-01-25 07:51:00,
2013-01-25 02:56:00,14.0,0.5,30.41,SW,227,0.0,1.0,54,0.00,,,0.00,0,LWC V2.00 B2112,2013-01-25 07:56:00,
2013-01-25 03:01:00,13.9,0.4,30.41,SW,228,0.0,2.0,54,0.00,,,0.00,0,LWC V2.00 B2112,2013-01-25 08:01:00,
2013-01-25 03:06:00,13.9,0.4,30.41,SW,228,1.0,1.0,54,0.00,,,0.00,0,LWC V2.00 B2112,2013-01-25 08:06:00,
2013-01-25 03:11:00,13.9,0.8,30.41,NNW,336,0.0,1.0,55,0.00,,,0.00,0,LWC V2.00 B2112,2013-01-25 08:11:00,
2013-01-25 03:16:00,13.8,1.4,30.41,NNW,336,0.0,1.0,57,0.00,,,0.00,0,LWC V2.00 B2112,2013-01-25 08:16:00,
2013-01-25 03:21:00,13.6,1.6,30.41,NNW,336,0.0,1.0,58,0.00,,,0.00,0,LWC V2.00 B2112,2013-01-25 08:21:00,
2013-01-25 03:26:00,13.6,1.2,30.41,NNW,336,1.0,1.0,57,0.00,,,0.00,0,LWC V2.00 B2112,2013-01-25 08:26:00,
2013-01-25 03:31:00,13.6,0.9,30.41,NNW,336,0.0,0.0,56,0.00,,,0.00,0,LWC V2.00 B2112,2013-01-25 08:31:00,
2013-01-25 03:36:00,13.6,1.2,30.41,NNW,336,0.0,1.0,57,0.00,,,0.00,0,LWC V2.00 B2112,2013-01-25 08:36:00,
2013-01-25 03:41:00,13.5,1.1,30.41,NNW,336,0.0,0.0,57,0.00,,,0.00,0,LWC V2.00 B2112,2013-01-25 08:41:00,
2013-01-25 03:46:00,13.5,1.5,30.41,NNW,336,0.0,0.0,58,0.00,,,0.00,0,LWC V2.00 B2112,2013-01-25 08:46:00,
2013-01-25 03:51:00,13.3,1.7,30.41,NNW,336,0.0,0.0,59,0.00,,,0.00,0,LWC V2.00 B2112,2013-01-25 08:51:00,
2013-01-25 03:56:00,13.2,1.6,30.41,NNW,341,0.0,2.0,59,0.00,,,0.00,0,LWC V2.00 B2112,2013-01-25 08:56:00,
2013-01-25 04:01:00,13.1,1.5,30.42,NNW,341,0.0,0.0,59,0.00,,,0.00,0,LWC V2.00 B2112,2013-01-25 09:01:00,
2013-01-25 04:06:00,13.0,1.8,30.42,NNW,341,0.0,0.0,60,0.00,,,0.00,0,LWC V2.00 B2112,2013-01-25 09:06:00,
2013-01-25 04:11:00,13.0,2.1,30.41,NNW,341,0.0,0.0,61,0.00,,,0.00,0,LWC V2.00 B2112,2013-01-25 09:11:00,
2013-01-25 04:16:00,12.8,1.9,30.41,NNW,341,0.0,0.0,61,0.00,,,0.00,0,LWC V2.00 B2112,2013-01-25 09:16:00,
2013-01-25 04:21:00,12.7,2.2,30.41,NNW,341,0.0,0.0,62,0.00,,,0.00,0,LWC V2.00 B2112,2013-01-25 09:21:00,
2013-01-25 04:26:00,12.5,2.3,30.41,NNW,341,0.0,0.0,63,0.00,,,0.00,0,LWC V2.00 B2112,2013-01-25 09:26:00,
2013-01-25 04:31:00,12.4,2.2,30.41,NNW,341,0.0,0.0,63,0.00,,,0.00,0,LWC V2.00 B2112,2013-01-25 09:31:00,
2013-01-25 04:36:00,12.3,2.5,30.41,NNW,341,0.0,0.0,64,0.00,,,0.00,0,LWC V2.00 B2112,2013-01-25 09:36:00,
2013-01-25 04:41:00,12.1,2.6,30.41,NNW,341,0.0,0.0,65,0.00,,,0.00,0,LWC V2.00 B2112,2013-01-25 09:41:00,
2013-01-25 04:46:00,12.0,2.2,30.41,NNW,341,0.0,0.0,64,0.00,,,0.00,0,LWC V2.00 B2112,2013-01-25 09:46:00,
2013-01-25 04:51:00,12.0,1.9,30.41,NNW,341,0.0,1.0,63,0.00,,,0.00,0,LWC V2.00 B2112,2013-01-25 09:51:00,
2013-01-25 04:56:00,12.1,2.3,30.41,NNW,341,1.0,1.0,64,0.00,,,0.00,0,LWC V2.00 B2112,2013-01-25 09:56:00,
2013-01-25 05:01:00,12.3,2.1,30.41,NNW,341,1.0,2.0,63,0.00,,,0.00,0,LWC V2.00 B2112,2013-01-25 10:01:00,
2013-01-25 05:06:00,12.5,2.3,30.41,NNW,341,0.0,0.0,63,0.00,,,0.00,0,LWC V2.00 B2112,2013-01-25 10:06:00,
2013-01-25 05:11:00,12.5,2.3,30.42,NNW,341,0.0,0.0,63,0.00,,,0.00,0,LWC V2.00 B2112,2013-01-25 10:11:00,
2013-01-25 05:16:00,12.5,3.0,30.42,NNW,341,0.0,1.0,65,0.00,,,0.00,0,LWC V2.00 B2112,2013-01-25 10:16:00,
2013-01-25 05:21:00,12.4,2.9,30.42,NNW,341,0.0,0.0,65,0.00,,,0.00,0,LWC V2.00 B2112,2013-01-25 10:21:00,
2013-01-25 05:26:00,12.5,3.0,30.43,NNW,341,0.0,1.0,65,0.00,,,0.00,0,LWC V2.00 B2112,2013-01-25 10:26:00,
2013-01-25 05:31:00,12.5,3.0,30.42,NNW,341,0.0,0.0,65,0.00,,,0.00,0,LWC V2.00 B2112,2013-01-25 10:31:00,
2013-01-25 05:36:00,12.5,3.3,30.42,NNW,341,0.0,0.0,66,0.00,,,0.00,0,LWC V2.00 B2112,2013-01-25 10:36:00,
2013-01-25 05:41:00,12.4,3.2,30.42,NNW,341,0.0,1.0,66,0.00,,,0.00,0,LWC V2.00 B2112,2013-01-25 10:41:00,
2013-01-25 05:46:00,12.4,3.2,30.42,NNW,341,0.0,0.0,66,0.00,,,0.00,0,LWC V2.00 B2112,2013-01-25 10:46:00,
2013-01-25 05:51:00,12.5,3.3,30.42,NNW,341,0.0,0.0,66,0.00,,,0.00,0,LWC V2.00 B2112,2013-01-25 10:51:00,
2013-01-25 05:56:00,12.5,3.7,30.42,NNW,341,0.0,0.0,67,0.00,,,0.00,0,LWC V2.00 B2112,2013-01-25 10:56:00,
2013-01-25 06:01:00,12.6,3.8,30.41,NNW,341,0.0,0.0,67,0.00,,,0.00,0,LWC V2.00 B2112,2013-01-25 11:01:00,
2013-01-25 06:06:00,12.6,3.8,30.41,NNW,341,0.0,0.0,67,0.00,,,0.00,0,LWC V2.00 B2112,2013-01-25 11:06:00,
2013-01-25 06:11:00,12.7,3.8,30.41,NNW,341,0.0,1.0,67,0.00,,,0.00,0,LWC V2.00 B2112,2013-01-25 11:11:00,
2013-01-25 06:16:00,12.7,3.8,30.40,NNW,341,0.0,2.0,67,0.00,,,0.00,0,LWC V2.00 B2112,2013-01-25 11:16:00,
2013-01-25 06:21:00,12.8,3.6,30.40,NNW,341,1.0,2.0,66,0.00,,,0.00,0,LWC V2.00 B2112,2013-01-25 11:21:00,
2013-01-25 06:26:00,12.8,3.9,30.41,NNW,341,0.0,0.0,67,0.00,,,0.00,0,LWC V2.00 B2112,2013-01-25 11:26:00,
2013-01-25 06:31:00,12.9,4.4,30.41,NNW,341,0.0,0.0,68,0.00,,,0.00,0,LWC V2.00 B2112,2013-01-25 11:31:00,
2013-01-25 06:36:00,12.9,4.4,30.41,NNW,341,0.0,0.0,68,0.00,,,0.00,0,LWC V2.00 B2112,2013-01-25 11:36:00,
2013-01-25 06:41:00,13.0,4.5,30.40,NNW,341,0.0,0.0,68,0.00,,,0.00,0,LWC V2.00 B2112,2013-01-25 11:41:00,
2013-01-25 06:46:00,13.0,4.5,30.40,NNW,341,0.0,0.0,68,0.00,,,0.00,0,LWC V2.00 B2112,2013-01-25 11:46:00,
2013-01-25 06:51:00,13.1,4.6,30.41,NNW,341,0.0,1.0,68,0.00,,,0.00,0,LWC V2.00 B2112,2013-01-25 11:51:00,
2013-01-25 06:56:00,13.1,4.6,30.40,NNW,341,0.0,3.0,68,0.00,,,0.00,0,LWC V2.00 B2112,2013-01-25 11:56:00,
2013-01-25 07:01:00,13.2,4.3,30.40,NNW,341,1.0,2.0,67,0.00,,,0.00,0,LWC V2.00 B2112,2013-01-25 12:01:00,
2013-01-25 07:06:00,13.4,4.2,30.40,NNW,341,0.0,1.0,66,0.00,,,0.00,0,LWC V2.00 B2112,2013-01-25 12:06:00,
2013-01-25 07:11:00,13.5,4.6,30.39,NNW,341,0.0,0.0,67,0.00,,,0.00,0,LWC V2.00 B2112,2013-01-25 12:11:00,
2013-01-25 07:16:00,13.5,4.3,30.39,NNW,341,1.0,1.0,66,0.00,,,0.00,0,LWC V2.00 B2112,2013-01-25 12:16:00,
2013-01-25 07:21:00,13.6,4.4,30.38,NNW,341,0.0,0.0,66,0.00,,,0.00,0,LWC V2.00 B2112,2013-01-25 12:21:00,
2013-01-25 07:26:00,13.6,4.4,30.39,NNW,341,0.0,2.0,66,0.00,,,0.00,0,LWC V2.00 B2112,2013-01-25 12:26:00,
2013-01-25 07:31:00,13.7,4.8,30.39,NNW,341,0.0,1.0,67,0.00,,,0.00,0,LWC V2.00 B2112,2013-01-25 12:31:00,
2013-01-25 07:36:00,13.9,5.0,30.38,NNW,341,2.0,3.0,67,0.00,,,0.00,0,LWC V2.00 B2112,2013-01-25 12:36:00,
2013-01-25 07:41:00,13.9,4.7,30.38,NNW,336,0.0,1.0,66,0.00,,,0.00,5,LWC V2.00 B2112,2013-01-25 12:41:00,
2013-01-25 07:46:00,14.1,4.9,30.38,NNW,336,0.0,2.0,66,0.00,,,0.00,7,LWC V2.00 B2112,2013-01-25 12:46:00,
2013-01-25 07:51:00,14.2,4.6,30.38,NNW,336,0.0,2.0,65,0.00,,,0.00,7,LWC V2.00 B2112,2013-01-25 12:51:00,
2013-01-25 07:56:00,14.3,4.7,30.38,NNW,336,1.0,5.0,65,0.00,,,0.00,9,LWC V2.00 B2112,2013-01-25 12:56:00,
2013-01-25 08:01:00,14.5,4.9,30.38,SSE,164,2.0,4.0,65,0.00,,,0.00,9,LWC V2.00 B2112,2013-01-25 13:01:00,
2013-01-25 08:06:00,14.6,5.0,30.38,SW,222,1.0,2.0,65,0.00,,,0.00,11,LWC V2.00 B2112,2013-01-25 13:06:00,
2013-01-25 08:11:00,14.8,5.2,30.39,SW,222,0.0,0.0,65,0.00,,,0.00,12,LWC V2.00 B2112,2013-01-25 13:11:00,
2013-01-25 08:16:00,15.0,5.1,30.39,SW,222,1.0,2.0,64,0.00,,,0.00,14,LWC V2.00 B2112,2013-01-25 13:16:00,
2013-01-25 08:21:00,15.2,5.2,30.39,SW,222,2.0,2.0,64,0.00,,,0.00,16,LWC V2.00 B2112,2013-01-25 13:21:00,
2013-01-25 08:26:00,15.3,5.3,30.39,South,179,2.0,4.0,64,0.00,,,0.00,16,LWC V2.00 B2112,2013-01-25 13:26:00,
2013-01-25 08:31:00,15.4,5.1,30.39,WNW,296,2.0,2.0,63,0.00,,,0.00,18,LWC V2.00 B2112,2013-01-25 13:31:00,
2013-01-25 08:36:00,15.4,5.1,30.39,West,275,1.0,1.0,63,0.00,,,0.00,18,LWC V2.00 B2112,2013-01-25 13:36:00,
2013-01-25 08:41:00,15.6,5.6,30.39,WNW,302,0.0,1.0,64,0.00,,,0.00,19,LWC V2.00 B2112,2013-01-25 13:41:00,
2013-01-25 08:46:00,15.7,5.4,30.40,WNW,302,0.0,3.0,63,0.00,,,0.00,19,LWC V2.00 B2112,2013-01-25 13:46:00,
2013-01-25 08:51:00,15.9,5.9,30.40,WNW,302,1.0,2.0,64,0.00,,,0.00,21,LWC V2.00 B2112,2013-01-25 13:51:00,
2013-01-25 08:56:00,16.1,5.8,30.40,WNW,302,0.0,0.0,63,0.00,,,0.00,21,LWC V2.00 B2112,2013-01-25 13:56:00,
2013-01-25 09:01:00,16.4,6.4,30.39,WNW,302,0.0,2.0,64,0.00,,,0.00,23,LWC V2.00 B2112,2013-01-25 14:01:00,
2013-01-25 09:06:00,16.6,6.2,30.40,WNW,302,0.0,1.0,63,0.00,,,0.00,25,LWC V2.00 B2112,2013-01-25 14:06:00,
2013-01-25 09:11:00,16.7,6.0,30.40,NNW,328,0.0,1.0,62,0.00,,,0.00,25,LWC V2.00 B2112,2013-01-25 14:11:00,
2013-01-25 09:16:00,16.8,6.1,30.40,NNW,341,0.0,1.0,62,0.00,,,0.00,26,LWC V2.00 B2112,2013-01-25 14:16:00,
2013-01-25 09:21:00,17.0,6.3,30.40,NNW,341,0.0,1.0,62,0.00,,,0.00,28,LWC V2.00 B2112,2013-01-25 14:21:00,
2013-01-25 09:26:00,17.1,6.4,30.40,NNW,340,0.0,2.0,62,0.00,,,0.00,28,LWC V2.00 B2112,2013-01-25 14:26:00,
2013-01-25 09:31:00,17.3,6.5,30.40,NNW,340,0.0,0.0,62,0.00,,,0.00,30,LWC V2.00 B2112,2013-01-25 14:31:00,
2013-01-25 09:36:00,17.6,6.8,30.40,NNW,340,1.0,1.0,62,0.00,,,0.00,32,LWC V2.00 B2112,2013-01-25 14:36:00,
2013-01-25 09:41:00,17.7,6.6,30.40,NNW,340,1.0,2.0,61,0.00,,,0.00,35,LWC V2.00 B2112,2013-01-25 14:41:00,
2013-01-25 09:46:00,17.8,6.7,30.40,NNW,336,0.0,1.0,61,0.00,,,0.00,37,LWC V2.00 B2112,2013-01-25 14:46:00,
2013-01-25 09:51:00,18.0,6.5,30.39,NNW,336,0.0,1.0,60,0.00,,,0.00,37,LWC V2.00 B2112,2013-01-25 14:51:00,
2013-01-25 09:56:00,18.1,6.6,30.39,NNW,336,0.0,2.0,60,0.00,,,0.00,35,LWC V2.00 B2112,2013-01-25 14:56:00,
2013-01-25 10:01:00,18.3,6.8,30.39,NNW,336,1.0,3.0,60,0.00,,,0.00,35,LWC V2.00 B2112,2013-01-25 15:01:00,
2013-01-25 10:06:00,18.5,6.6,30.39,NNW,336,0.0,2.0,59,0.00,,,0.00,37,LWC V2.00 B2112,2013-01-25 15:06:00,
2013-01-25 10:11:00,18.6,6.3,30.39,NNW,336,0.0,1.0,58,0.00,,,0.00,37,LWC V2.00 B2112,2013-01-25 15:11:00,
2013-01-25 10:16:00,18.8,6.5,30.39,NNW,336,1.0,1.0,58,0.00,,,0.00,40,LWC V2.00 B2112,2013-01-25 15:16:00,
2013-01-25 10:21:00,19.0,7.1,30.39,NNW,336,2.0,3.0,59,0.00,,,0.00,40,LWC V2.00 B2112,2013-01-25 15:21:00,
2013-01-25 10:26:00,19.1,6.4,30.39,NNW,336,0.0,3.0,57,0.00,,,0.00,40,LWC V2.00 B2112,2013-01-25 15:26:00,
2013-01-25 10:31:00,19.2,6.5,30.39,WSW,246,0.0,2.0,57,0.00,,,0.00,42,LWC V2.00 B2112,2013-01-25 15:31:00,
2013-01-25 10:36:00,19.3,6.6,30.38,WSW,246,0.0,2.0,57,0.00,,,0.00,42,LWC V2.00 B2112,2013-01-25 15:36:00,
2013-01-25 10:41:00,19.5,6.4,30.38,SSW,195,3.0,3.0,56,0.00,,,0.00,44,LWC V2.00 B2112,2013-01-25 15:41:00,
2013-01-25 10:46:00,19.6,6.5,30.37,SSW,194,0.0,0.0,56,0.00,,,0.00,46,LWC V2.00 B2112,2013-01-25 15:46:00,
2013-01-25 10:51:00,19.9,6.8,30.36,SSW,194,0.0,3.0,56,0.00,,,0.00,47,LWC V2.00 B2112,2013-01-25 15:51:00,
2013-01-25 10:56:00,20.1,7.0,30.36,SSW,196,0.0,0.0,56,0.00,,,0.00,49,LWC V2.00 B2112,2013-01-25 15:56:00,
2013-01-25 11:01:00,20.3,6.3,30.36,South,191,2.0,2.0,54,0.00,,,0.00,47,LWC V2.00 B2112,2013-01-25 16:01:00,
2013-01-25 11:06:00,20.2,5.8,30.35,WSW,248,1.0,2.0,53,0.00,,,0.00,49,LWC V2.00 B2112,2013-01-25 16:06:00,
2013-01-25 11:11:00,20.2,6.2,30.35,WSW,248,1.0,1.0,54,0.00,,,0.00,49,LWC V2.00 B2112,2013-01-25 16:11:00,
2013-01-25 11:16:00,20.3,6.3,30.34,West,270,2.0,2.0,54,0.00,,,0.00,49,LWC V2.00 B2112,2013-01-25 16:16:00,
2013-01-25 11:21:00,20.6,6.2,30.34,SW,217,0.0,2.0,53,0.00,,,0.00,49,LWC V2.00 B2112,2013-01-25 16:21:00,
2013-01-25 11:26:00,20.6,6.2,30.33,SW,217,0.0,1.0,53,0.00,,,0.00,49,LWC V2.00 B2112,2013-01-25 16:26:00,
2013-01-25 11:31:00,20.9,6.9,30.33,SW,217,0.0,2.0,54,0.00,,,0.00,51,LWC V2.00 B2112,2013-01-25 16:31:00,
2013-01-25 11:36:00,21.1,6.7,30.32,SW,217,0.0,1.0,53,0.00,,,0.00,49,LWC V2.00 B2112,2013-01-25 16:36:00,
2013-01-25 11:41:00,21.3,6.0,30.31,WSW,250,0.0,1.0,51,0.00,,,0.00,47,LWC V2.00 B2112,2013-01-25 16:41:00,
2013-01-25 11:46:00,21.3,6.0,30.31,SW,223,0.0,0.0,51,0.00,,,0.00,46,LWC V2.00 B2112,2013-01-25 16:46:00,
2013-01-25 11:51:00,21.4,5.7,30.31,SW,223,0.0,1.0,50,0.00,,,0.00,46,LWC V2.00 B2112,2013-01-25 16:51:00,
2013-01-25 11:56:00,21.4,6.1,30.31,SW,223,0.0,1.0,51,0.00,,,0.00,47,LWC V2.00 B2112,2013-01-25 16:56:00,
2013-01-25 12:01:00,21.6,6.3,30.31,SW,223,0.0,1.0,51,0.00,,,0.00,49,LWC V2.00 B2112,2013-01-25 17:01:00,
2013-01-25 12:06:00,21.6,5.9,30.31,SW,223,0.0,1.0,50,0.00,,,0.00,46,LWC V2.00 B2112,2013-01-25 17:06:00,
2013-01-25 12:11:00,21.8,6.5,30.31,SW,223,1.0,1.0,51,0.00,,,0.00,46,LWC V2.00 B2112,2013-01-25 17:11:00,
2013-01-25 12:16:00,22.0,6.2,30.31,SW,223,0.0,2.0,50,0.00,,,0.00,46,LWC V2.00 B2112,2013-01-25 17:16:00,
2013-01-25 12:21:00,22.2,6.0,30.30,SW,220,2.0,2.0,49,0.00,,,0.00,46,LWC V2.00 B2112,2013-01-25 17:21:00,
2013-01-25 12:26:00,22.4,6.2,30.30,SW,220,0.0,1.0,49,0.00,,,0.00,46,LWC V2.00 B2112,2013-01-25 17:26:00,
2013-01-25 12:31:00,22.5,5.8,30.29,SW,220,0.0,0.0,48,0.00,,,0.00,46,LWC V2.00 B2112,2013-01-25 17:31:00,
2013-01-25 12:36:00,22.6,6.4,30.29,SW,220,0.0,1.0,49,0.00,,,0.00,47,LWC V2.00 B2112,2013-01-25 17:36:00,
2013-01-25 12:41:00,22.7,6.4,30.28,SW,220,0.0,1.0,49,0.00,,,0.00,47,LWC V2.00 B2112,2013-01-25 17:41:00,
2013-01-25 12:46:00,22.8,6.5,30.28,WSW,245,0.0,2.0,49,0.00,,,0.00,47,LWC V2.00 B2112,2013-01-25 17:46:00,
2013-01-25 12:51:00,23.0,6.7,30.27,WSW,245,0.0,1.0,49,0.00,,,0.00,47,LWC V2.00 B2112,2013-01-25 17:51:00,
2013-01-25 12:56:00,23.0,6.3,30.27,WSW,256,1.0,1.0,48,0.00,,,0.00,44,LWC V2.00 B2112,2013-01-25 17:56:00,
2013-01-25 13:00:00,23.1,6.4,30.27,WSW,256,0.0,0.0,48,0.00,,,0.00,44,LWC V2.00 B2112,2013-01-25 18:00:00,
2013-01-25 13:05:00,23.3,6.1,30.26,West,275,1.0,2.0,47,0.00,,,0.00,42,LWC V2.00 B2112,2013-01-25 18:05:00,
2013-01-25 13:10:00,23.3,6.5,30.26,WNW,286,0.0,1.0,48,0.00,,,0.00,40,LWC V2.00 B2112,2013-01-25 18:10:00,
2013-01-25 13:15:00,23.4,7.1,30.25,WNW,286,0.0,0.0,49,0.00,,,0.00,40,LWC V2.00 B2112,2013-01-25 18:15:00,
2013-01-25 13:20:00,23.5,6.3,30.24,WNW,303,1.0,1.0,47,0.00,,,0.00,37,LWC V2.00 B2112,2013-01-25 18:20:00,
2013-01-25 13:25:00,23.6,6.8,30.25,WNW,303,0.0,1.0,48,0.00,,,0.00,35,LWC V2.00 B2112,2013-01-25 18:25:00,
2013-01-25 13:30:00,23.7,6.9,30.25,NNW,341,1.0,2.0,48,0.00,,,0.00,37,LWC V2.00 B2112,2013-01-25 18:30:00,
2013-01-25 13:35:00,23.6,6.4,30.24,NNW,341,0.0,2.0,47,0.00,,,0.00,35,LWC V2.00 B2112,2013-01-25 18:35:00,
2013-01-25 13:40:00,23.6,6.8,30.24,NNW,341,0.0,1.0,48,0.00,,,0.00,30,LWC V2.00 B2112,2013-01-25 18:40:00,
2013-01-25 13:45:00,23.7,6.9,30.24,NNW,341,0.0,1.0,48,0.00,,,0.00,35,LWC V2.00 B2112,2013-01-25 18:45:00,
2013-01-25 13:50:00,23.8,7.0,30.24,NNW,341,0.0,1.0,48,0.00,,,0.00,46,LWC V2.00 B2112,2013-01-25 18:50:00,
2013-01-25 13:55:00,24.0,7.2,30.23,NNW,341,0.0,1.0,48,0.00,,,0.00,46,LWC V2.00 B2112,2013-01-25 18:55:00,
2013-01-25 14:00:00,24.3,7.9,30.23,NNW,341,0.0,0.0,49,0.00,,,0.00,39,LWC V2.00 B2112,2013-01-25 19:00:00,
2013-01-25 14:05:00,24.4,7.6,30.23,NNW,341,1.0,1.0,48,0.00,,,0.00,39,LWC V2.00 B2112,2013-01-25 19:05:00,
2013-01-25 14:10:00,24.5,6.7,30.23,NNW,341,3.0,3.0,46,0.00,,,0.00,39,LWC V2.00 B2112,2013-01-25 19:10:00,
2013-01-25 14:15:00,24.4,6.6,30.23,NNW,341,0.0,0.0,46,0.00,,,0.00,32,LWC V2.00 B2112,2013-01-25 19:15:00,
2013-01-25 14:20:00,24.5,7.2,30.23,NNW,341,0.0,0.0,47,0.00,,,0.00,35,LWC V2.00 B2112,2013-01-25 19:20:00,
2013-01-25 14:25:00,24.6,6.8,30.22,NNW,341,0.0,0.0,46,0.00,,,0.00,26,LWC V2.00 B2112,2013-01-25 19:25:00,
2013-01-25 14:30:00,24.7,6.9,30.22,NNW,341,0.0,0.0,46,0.00,,,0.00,30,LWC V2.00 B2112,2013-01-25 19:30:00,
2013-01-25 14:35:00,24.7,6.9,30.21,NNW,341,0.0,1.0,46,0.00,,,0.00,33,LWC V2.00 B2112,2013-01-25 19:35:00,
2013-01-25 14:40:00,24.8,7.5,30.21,NNW,341,0.0,1.0,47,0.00,,,0.00,28,LWC V2.00 B2112,2013-01-25 19:40:00,
2013-01-25 14:45:00,24.9,7.1,30.21,NNW,341,0.0,1.0,46,0.00,,,0.00,28,LWC V2.00 B2112,2013-01-25 19:45:00,
2013-01-25 14:50:00,25.0,7.2,30.21,NNW,341,3.0,3.0,46,0.00,,,0.00,26,LWC V2.00 B2112,2013-01-25 19:50:00,
2013-01-25 14:55:00,24.8,7.0,30.21,NNW,341,1.0,1.0,46,0.00,,,0.00,23,LWC V2.00 B2112,2013-01-25 19:55:00,
2013-01-25 15:00:00,24.8,7.0,30.21,NNW,341,1.0,1.0,46,0.00,,,0.00,19,LWC V2.00 B2112,2013-01-25 20:00:00,
2013-01-25 15:05:00,24.7,6.9,30.20,NNW,341,0.0,1.0,46,0.00,,,0.00,23,LWC V2.00 B2112,2013-01-25 20:05:00,
2013-01-25 15:10:00,24.7,6.4,30.20,NNW,341,0.0,1.0,45,0.00,,,0.00,19,LWC V2.00 B2112,2013-01-25 20:10:00,
2013-01-25 15:15:00,24.5,6.2,30.19,NNW,341,0.0,1.0,45,0.00,,,0.00,14,LWC V2.00 B2112,2013-01-25 20:15:00,
2013-01-25 15:20:00,24.5,6.7,30.19,NNW,341,0.0,1.0,46,0.00,,,0.00,12,LWC V2.00 B2112,2013-01-25 20:20:00,
2013-01-25 15:25:00,24.4,6.6,30.19,NNW,341,0.0,0.0,46,0.00,,,0.00,12,LWC V2.00 B2112,2013-01-25 20:25:00,
2013-01-25 15:30:00,24.4,6.1,30.20,NNW,341,1.0,1.0,45,0.00,,,0.00,16,LWC V2.00 B2112,2013-01-25 20:30:00,
2013-01-25 15:35:00,24.4,6.6,30.20,NNW,341,0.0,0.0,46,0.00,,,0.00,14,LWC V2.00 B2112,2013-01-25 20:35:00,
2013-01-25 15:40:00,24.4,6.6,30.19,NNW,341,0.0,1.0,46,0.00,,,0.00,7,LWC V2.00 B2112,2013-01-25 20:40:00,
2013-01-25 15:45:00,24.4,7.1,30.19,NNW,341,0.0,0.0,47,0.00,,,0.00,7,LWC V2.00 B2112,2013-01-25 20:45:00,
2013-01-25 15:50:00,24.4,7.1,30.19,NNW,341,0.0,0.0,47,0.00,,,0.00,5,LWC V2.00 B2112,2013-01-25 20:50:00,
2013-01-25 15:55:00,24.4,6.6,30.18,NNW,341,0.0,1.0,46,0.00,,,0.00,5,LWC V2.00 B2112,2013-01-25 20:55:00,
2013-01-25 16:00:00,24.4,6.6,30.18,NNW,341,0.0,0.0,46,0.00,,,0.00,5,LWC V2.00 B2112,2013-01-25 21:00:00,
2013-01-25 16:05:00,24.4,6.6,30.17,NNW,341,2.0,3.0,46,0.00,,,0.00,5,LWC V2.00 B2112,2013-01-25 21:05:00,
2013-01-25 16:10:00,24.3,6.1,30.17,NNW,341,1.0,2.0,45,0.00,,,0.00,0,LWC V2.00 B2112,2013-01-25 21:10:00,
2013-01-25 16:15:00,24.3,6.5,30.18,NNW,341,0.0,1.0,46,0.00,,,0.00,0,LWC V2.00 B2112,2013-01-25 21:15:00,
2013-01-25 16:20:00,24.3,7.0,30.19,NNW,341,0.0,0.0,47,0.00,,,0.00,0,LWC V2.00 B2112,2013-01-25 21:20:00,
2013-01-25 16:25:00,24.3,6.5,30.18,NNW,341,1.0,2.0,46,0.00,,,0.00,0,LWC V2.00 B2112,2013-01-25 21:25:00,
2013-01-25 16:30:00,24.3,7.0,30.18,NNW,341,0.0,1.0,47,0.00,,,0.00,0,LWC V2.00 B2112,2013-01-25 21:30:00,
2013-01-25 16:35:00,24.1,7.3,30.18,NNW,341,2.0,3.0,48,0.00,,,0.00,0,LWC V2.00 B2112,2013-01-25 21:35:00,
2013-01-25 16:40:00,23.9,9.7,30.17,NNW,341,1.0,2.0,54,0.00,,,0.00,0,LWC V2.00 B2112,2013-01-25 21:40:00,
2013-01-25 16:45:00,23.6,10.6,30.17,NNW,341,0.0,2.0,57,0.00,,,0.00,0,LWC V2.00 B2112,2013-01-25 21:45:00,
2013-01-25 16:50:00,23.2,11.4,30.17,NNW,342,1.0,4.0,60,0.00,,,0.00,0,LWC V2.00 B2112,2013-01-25 21:50:00,
2013-01-25 16:55:00,22.8,13.2,30.17,NNW,342,1.0,2.0,66,0.00,,,0.00,0,LWC V2.00 B2112,2013-01-25 21:55:00,
2013-01-25 17:00:00,22.3,14.0,30.17,NNW,342,0.0,3.0,70,0.00,,,0.00,0,LWC V2.00 B2112,2013-01-25 22:00:00,
2013-01-25 17:05:00,21.9,14.9,30.16,NNW,342,1.0,1.0,74,0.00,,,0.00,0,LWC V2.00 B2112,2013-01-25 22:05:00,
2013-01-25 17:10:00,21.5,15.1,30.16,NNW,342,0.0,2.0,76,0.00,,,0.00,0,LWC V2.00 B2112,2013-01-25 22:10:00,
2013-01-25 17:15:00,21.2,15.4,30.16,NNW,342,0.0,1.0,78,0.00,,,0.00,0,LWC V2.00 B2112,2013-01-25 22:15:00,
2013-01-25 17:20:00,21.1,15.9,30.16,NNW,342,2.0,2.0,80,0.00,,,0.00,0,LWC V2.00 B2112,2013-01-25 22:20:00,
2013-01-25 17:25:00,20.9,15.7,30.16,NNW,342,0.0,1.0,80,0.00,,,0.00,0,LWC V2.00 B2112,2013-01-25 22:25:00,
2013-01-25 17:30:00,20.7,15.8,30.15,NNW,342,0.0,2.0,81,0.00,,,0.00,0,LWC V2.00 B2112,2013-01-25 22:30:00,
2013-01-25 17:35:00,20.6,16.0,30.15,NNW,342,0.0,0.0,82,0.00,,,0.00,0,LWC V2.00 B2112,2013-01-25 22:35:00,
2013-01-25 17:40:00,20.6,16.3,30.14,NNW,342,0.0,0.0,83,0.00,,,0.00,0,LWC V2.00 B2112,2013-01-25 22:40:00,
2013-01-25 17:45:00,20.5,16.2,30.14,NNW,342,0.0,0.0,83,0.00,,,0.00,0,LWC V2.00 B2112,2013-01-25 22:45:00,
2013-01-25 17:50:00,20.4,16.4,30.14,NNW,342,0.0,0.0,84,0.00,,,0.00,0,LWC V2.00 B2112,2013-01-25 22:50:00,
2013-01-25 17:55:00,20.3,16.5,30.13,NNW,342,0.0,0.0,85,0.00,,,0.00,0,LWC V2.00 B2112,2013-01-25 22:55:00,
2013-01-25 18:00:00,20.2,16.4,30.13,NNW,342,0.0,1.0,85,0.00,,,0.00,0,LWC V2.00 B2112,2013-01-25 23:00:00,
2013-01-25 18:05:00,20.1,16.3,30.13,NNW,342,0.0,1.0,85,0.00,,,0.00,0,LWC V2.00 B2112,2013-01-25 23:05:00,
2013-01-25 18:10:00,20.0,16.5,30.13,NNW,342,0.0,0.0,86,0.00,,,0.00,0,LWC V2.00 B2112,2013-01-25 23:10:00,
2013-01-25 18:15:00,20.0,16.2,30.13,NNW,342,0.0,0.0,85,0.00,,,0.00,0,LWC V2.00 B2112,2013-01-25 23:15:00,
2013-01-25 18:20:00,20.0,16.5,30.13,NNW,342,0.0,0.0,86,0.00,,,0.00,0,LWC V2.00 B2112,2013-01-25 23:20:00,
2013-01-25 18:25:00,20.0,16.5,30.12,NNW,342,0.0,0.0,86,0.00,,,0.00,0,LWC V2.00 B2112,2013-01-25 23:25:00,
2013-01-25 18:30:00,20.0,16.5,30.13,NNW,342,0.0,0.0,86,0.00,,,0.00,0,LWC V2.00 B2112,2013-01-25 23:30:00,
2013-01-25 18:35:00,20.0,16.8,30.13,NNW,342,0.0,0.0,87,0.00,,,0.00,0,LWC V2.00 B2112,2013-01-25 23:35:00,
2013-01-25 18:40:00,20.0,16.5,30.13,NNW,342,0.0,0.0,86,0.00,,,0.00,0,LWC V2.00 B2112,2013-01-25 23:40:00,
2013-01-25 18:45:00,20.0,16.8,30.13,NNW,342,0.0,0.0,87,0.00,,,0.00,0,LWC V2.00 B2112,2013-01-25 23:45:00,
2013-01-25 18:50:00,20.0,16.8,30.12,NNW,342,0.0,0.0,87,0.00,,,0.00,0,LWC V2.00 B2112,2013-01-25 23:50:00,
2013-01-25 18:55:00,20.0,16.8,30.13,NNW,342,0.0,0.0,87,0.00,,,0.00,0,LWC V2.00 B2112,2013-01-25 23:55:00,
2013-01-25 19:00:00,20.0,17.0,30.13,NNW,342,0.0,1.0,88,0.00,,,0.00,0,LWC V2.00 B2112,2013-01-26 00:00:00,
2013-01-25 19:05:00,20.1,16.9,30.12,NNW,342,0.0,0.0,87,0.00,,,0.00,0,LWC V2.00 B2112,2013-01-26 00:05:00,
2013-01-25 19:10:00,20.1,16.9,30.12,NNW,342,0.0,0.0,87,0.00,,,0.00,0,LWC V2.00 B2112,2013-01-26 00:10:00,
2013-01-25 19:15:00,20.1,16.9,30.12,NNW,342,0.0,0.0,87,0.00,,,0.00,0,LWC V2.00 B2112,2013-01-26 00:15:00,
2013-01-25 19:20:00,20.1,17.1,30.11,NNW,342,0.0,0.0,88,0.00,,,0.00,0,LWC V2.00 B2112,2013-01-26 00:20:00,
2013-01-25 19:25:00,20.1,17.1,30.12,NNW,342,0.0,0.0,88,0.00,,,0.00,0,LWC V2.00 B2112,2013-01-26 00:25:00,
2013-01-25 19:30:00,20.1,16.9,30.11,NNW,342,0.0,0.0,87,0.00,,,0.00,0,LWC V2.00 B2112,2013-01-26 00:30:00,
2013-01-25 19:35:00,20.1,17.1,30.11,NNW,342,0.0,0.0,88,0.00,,,0.00,0,LWC V2.00 B2112,2013-01-26 00:35:00,
2013-01-25 19:40:00,20.1,17.1,30.11,NNW,342,0.0,0.0,88,0.00,,,0.00,0,LWC V2.00 B2112,2013-01-26 00:40:00,
2013-01-25 19:45:00,20.0,17.0,30.11,NNW,342,0.0,0.0,88,0.00,,,0.00,0,LWC V2.00 B2112,2013-01-26 00:45:00,
2013-01-25 19:50:00,20.0,16.8,30.11,NNW,342,0.0,0.0,87,0.00,,,0.00,0,LWC V2.00 B2112,2013-01-26 00:50:00,
2013-01-25 19:55:00,20.0,16.8,30.11,NNW,342,0.0,0.0,87,0.00,,,0.00,0,LWC V2.00 B2112,2013-01-26 00:55:00,
2013-01-25 20:00:00,20.0,17.0,30.11,NNW,342,0.0,0.0,88,0.00,,,0.00,0,LWC V2.00 B2112,2013-01-26 01:00:00,
2013-01-25 20:05:00,20.0,17.0,30.11,NNW,342,0.0,1.0,88,0.00,,,0.00,0,LWC V2.00 B2112,2013-01-26 01:05:00,
2013-01-25 20:10:00,20.0,17.0,30.11,NNW,342,0.0,0.0,88,0.00,,,0.00,0,LWC V2.00 B2112,2013-01-26 01:10:00,
2013-01-25 20:15:00,20.0,17.0,30.11,NNW,342,0.0,0.0,88,0.00,,,0.00,0,LWC V2.00 B2112,2013-01-26 01:15:00,
2013-01-25 20:20:00,20.0,17.0,30.10,NNW,342,0.0,0.0,88,0.00,,,0.00,0,LWC V2.00 B2112,2013-01-26 01:20:00,
2013-01-25 20:25:00,19.9,16.9,30.10,NNW,342,0.0,0.0,88,0.00,,,0.00,0,LWC V2.00 B2112,2013-01-26 01:25:00,
2013-01-25 20:30:00,19.9,16.9,30.10,NNW,342,0.0,0.0,88,0.00,,,0.00,0,LWC V2.00 B2112,2013-01-26 01:30:00,
2013-01-25 20:35:00,19.9,16.9,30.10,NNW,342,0.0,0.0,88,0.00,,,0.00,0,LWC V2.00 B2112,2013-01-26 01:35:00,
2013-01-25 20:40:00,19.8,16.6,30.10,NNW,342,0.0,0.0,87,0.00,,,0.00,0,LWC V2.00 B2112,2013-01-26 01:40:00,
2013-01-25 20:45:00,19.7,16.5,30.09,NNW,342,0.0,0.0,87,0.00,,,0.00,0,LWC V2.00 B2112,2013-01-26 01:45:00,
2013-01-25 20:50:00,19.6,16.4,30.09,NNW,342,0.0,0.0,87,0.00,,,0.00,0,LWC V2.00 B2112,2013-01-26 01:50:00,
2013-01-25 20:55:00,19.5,16.3,30.08,NNW,342,0.0,0.0,87,0.00,,,0.00,0,LWC V2.00 B2112,2013-01-26 01:55:00,
2013-01-25 21:00:00,19.3,15.8,30.08,NNW,342,0.0,0.0,86,0.00,,,0.00,0,LWC V2.00 B2112,2013-01-26 02:00:00,
2013-01-25 21:05:00,19.2,15.7,30.08,NNW,342,0.0,0.0,86,0.00,,,0.00,0,LWC V2.00 B2112,2013-01-26 02:05:00,
2013-01-25 21:09:00,19.0,15.5,30.08,NNW,342,0.0,0.0,86,0.00,,,0.00,0,LWC V2.00 B2112,2013-01-26 02:09:00,
2013-01-25 21:14:00,18.8,15.1,30.08,NNW,342,0.0,0.0,85,0.00,,,0.00,0,LWC V2.00 B2112,2013-01-26 02:14:00,
2013-01-25 21:19:00,18.6,14.9,30.08,NNW,342,0.0,0.0,85,0.00,,,0.00,0,LWC V2.00 B2112,2013-01-26 02:19:00,
2013-01-25 21:24:00,18.3,14.6,30.08,NNW,342,0.0,0.0,85,0.00,,,0.00,0,LWC V2.00 B2112,2013-01-26 02:24:00,
2013-01-25 21:29:00,18.0,14.3,30.08,NNW,342,0.0,0.0,85,0.00,,,0.00,0,LWC V2.00 B2112,2013-01-26 02:29:00,
2013-01-25 21:34:00,17.7,14.0,30.07,NNW,342,0.0,0.0,85,0.00,,,0.00,0,LWC V2.00 B2112,2013-01-26 02:34:00,
2013-01-25 21:39:00,17.5,14.0,30.07,NNW,342,0.0,0.0,86,0.00,,,0.00,0,LWC V2.00 B2112,2013-01-26 02:39:00,
2013-01-25 21:44:00,17.3,13.8,30.07,NNW,342,0.0,0.0,86,0.00,,,0.00,0,LWC V2.00 B2112,2013-01-26 02:44:00,
2013-01-25 21:49:00,17.1,13.6,30.07,NNW,342,0.0,0.0,86,0.00,,,0.00,0,LWC V2.00 B2112,2013-01-26 02:49:00,
2013-01-25 21:54:00,16.8,13.4,30.07,NNW,342,0.0,0.0,86,0.00,,,0.00,0,LWC V2.00 B2112,2013-01-26 02:54:00,
2013-01-25 21:59:00,16.6,13.2,30.07,NNW,342,0.0,0.0,86,0.00,,,0.00,0,LWC V2.00 B2112,2013-01-26 02:59:00,
2013-01-25 22:04:00,16.3,12.9,30.07,NNW,341,0.0,0.0,86,0.00,,,0.00,0,LWC V2.00 B2112,2013-01-26 03:04:00,
2013-01-25 22:09:00,16.1,12.9,30.07,NNW,342,0.0,0.0,87,0.00,,,0.00,0,LWC V2.00 B2112,2013-01-26 03:09:00,
2013-01-25 22:14:00,15.9,12.7,30.06,NNW,342,0.0,0.0,87,0.00,,,0.00,0,LWC V2.00 B2112,2013-01-26 03:14:00,
2013-01-25 22:19:00,15.7,12.3,30.06,NNW,342,0.0,0.0,86,0.00,,,0.00,0,LWC V2.00 B2112,2013-01-26 03:19:00,
2013-01-25 22:24:00,15.5,12.1,30.06,NNW,342,0.0,0.0,86,0.00,,,0.00,0,LWC V2.00 B2112,2013-01-26 03:24:00,
2013-01-25 22:29:00,15.3,11.9,30.06,NNW,342,0.0,0.0,86,0.00,,,0.00,0,LWC V2.00 B2112,2013-01-26 03:29:00,
2013-01-25 22:34:00,15.0,11.6,30.06,NNW,342,0.0,0.0,86,0.00,,,0.00,0,LWC V2.00 B2112,2013-01-26 03:34:00,
2013-01-25 22:39:00,14.8,11.4,30.06,NNW,342,0.0,0.0,86,0.00,,,0.00,0,LWC V2.00 B2112,2013-01-26 03:39:00,
2013-01-25 22:44:00,14.5,11.4,30.06,NNW,342,0.0,0.0,87,0.00,,,0.00,0,LWC V2.00 B2112,2013-01-26 03:44:00,
2013-01-25 22:49:00,14.3,11.2,30.06,NNW,342,0.0,0.0,87,0.00,,,0.00,0,LWC V2.00 B2112,2013-01-26 03:49:00,
2013-01-25 22:54:00,14.1,10.7,30.06,NNW,342,0.0,0.0,86,0.00,,,0.00,0,LWC V2.00 B2112,2013-01-26 03:54:00,
2013-01-25 22:59:00,14.0,10.6,30.06,NNW,342,0.0,0.0,86,0.00,,,0.00,0,LWC V2.00 B2112,2013-01-26 03:59:00,
2013-01-25 23:04:00,13.8,10.7,30.06,NNW,342,0.0,0.0,87,0.00,,,0.00,0,LWC V2.00 B2112,2013-01-26 04:04:00,
2013-01-25 23:09:00,13.6,10.5,30.06,NNW,342,0.0,0.0,87,0.00,,,0.00,0,LWC V2.00 B2112,2013-01-26 04:09:00,
2013-01-25 23:14:00,13.5,10.4,30.06,NNW,342,0.0,0.0,87,0.00,,,0.00,0,LWC V2.00 B2112,2013-01-26 04:14:00,
2013-01-25 23:19:00,13.3,10.2,30.06,NNW,342,0.0,0.0,87,0.00,,,0.00,0,LWC V2.00 B2112,2013-01-26 04:19:00,
2013-01-25 23:24:00,13.1,10.0,30.06,NNW,342,0.0,0.0,87,0.00,,,0.00,0,LWC V2.00 B2112,2013-01-26 04:24:00,
2013-01-25 23:29:00,13.0,10.1,30.06,NNW,342,0.0,0.0,88,0.00,,,0.00,0,LWC V2.00 B2112,2013-01-26 04:29:00,
2013-01-25 23:34:00,13.0,10.1,30.06,NNW,342,0.0,0.0,88,0.00,,,0.00,0,LWC V2.00 B2112,2013-01-26 04:34:00,
2013-01-25 23:39:00,12.8,9.7,30.06,NNW,342,0.0,0.0,87,0.00,,,0.00,0,LWC V2.00 B2112,2013-01-26 04:39:00,
2013-01-25 23:44:00,12.7,9.6,30.06,NNW,342,0.0,0.0,87,0.00,,,0.00,0,LWC V2.00 B2112,2013-01-26 04:44:00,
2013-01-25 23:49:00,12.7,9.8,30.06,NNW,342,0.0,0.0,88,0.00,,,0.00,0,LWC V2.00 B2112,2013-01-26 04:49:00,
2013-01-25 23:54:00,12.6,9.7,30.06,NNW,342,0.0,0.0,88,0.00,,,0.00,0,LWC V2.00 B2112,2013-01-26 04:54:00,
2013-01-25 23:59:00,12.5,9.4,30.06,NNW,342,0.0,0.0,87,0.00,,,0.00,0,LWC V2.00 B2112,2013-01-26 04:59:00,